Mozhga, Russia
Current Conditions -  °F | °C
As of 3:00 AM on Thursday 27 Nov 2014 (Local Time) from UWKE Reporting Station
Freezing Drizzle Freezing Drizzle  
Wind Chill:   Ceiling: 300
Heat Index: 18°   Visibility: 1.6mi
Dew Point: 16°   Wind: 7mph
Humidity: 93%   Direction: 240°WSW
Pressure: 30.36"   Gusts: NA
Location:  56.45°N, 52.19°E
Report Text: UWKE 262300Z 24003MPS 2600 -FZDZ BR OVC003 M08/M09 Q1028 NOSIGRMK QBB100 QFE753/1005 21390041
Loading
Personal Weather Stations






























Interactive Weather Map New forecast layout! Learn more

10-Day Weather Forecast

Advertisements
Track Severe Weather on mobile